createdAt,value
2018-06-22T00:00:34.405Z,11.10
2018-06-22T00:03:02.877Z,11.10
2018-06-22T00:05:31.393Z,11.10
2018-06-22T00:07:59.901Z,11.00
2018-06-22T00:10:28.378Z,11.00
2018-06-22T00:12:56.964Z,10.90
2018-06-22T00:15:25.396Z,10.90
2018-06-22T00:17:53.816Z,10.90
2018-06-22T00:20:22.432Z,11.00
2018-06-22T00:22:50.897Z,11.00
2018-06-22T00:25:29.438Z,11.00
2018-06-22T00:27:59.899Z,10.90
2018-06-22T00:33:04.274Z,10.90
2018-06-22T00:35:32.829Z,10.90
2018-06-22T00:38:01.229Z,10.90
2018-06-22T00:40:29.658Z,10.80
2018-06-22T00:42:58.142Z,10.80
2018-06-22T00:45:26.542Z,10.80
2018-06-22T00:47:54.969Z,10.80
2018-06-22T00:50:23.354Z,10.80
2018-06-22T00:52:51.813Z,10.70
2018-06-22T00:55:20.221Z,10.70
2018-06-22T00:57:48.661Z,10.70
2018-06-22T01:00:17.122Z,10.60
2018-06-22T01:02:45.576Z,10.60
2018-06-22T01:05:13.977Z,10.60
2018-06-22T01:07:42.446Z,10.50
2018-06-22T01:10:10.848Z,10.60
2018-06-22T01:12:39.319Z,10.50
2018-06-22T01:15:07.747Z,10.60
2018-06-22T01:17:36.234Z,10.50
2018-06-22T01:20:04.637Z,10.50
2018-06-22T01:22:32.997Z,10.60
2018-06-22T01:25:01.362Z,10.60
2018-06-22T01:27:29.790Z,10.50
2018-06-22T01:29:58.205Z,10.50
2018-06-22T01:32:26.614Z,10.50
2018-06-22T01:34:55.063Z,10.50
2018-06-22T01:39:51.582Z,10.40
2018-06-22T01:42:20.001Z,10.40
2018-06-22T01:44:48.489Z,10.40
2018-06-22T01:47:16.871Z,10.40
2018-06-22T01:49:45.290Z,10.40
2018-06-22T01:52:13.667Z,10.40
2018-06-22T01:54:42.466Z,10.30
2018-06-22T01:57:10.853Z,10.30
2018-06-22T01:59:39.319Z,10.30
2018-06-22T02:02:07.743Z,10.30
2018-06-22T02:04:37.134Z,10.20
2018-06-22T02:07:05.696Z,10.30
2018-06-22T02:09:34.945Z,10.30
2018-06-22T02:12:03.362Z,10.30
2018-06-22T02:14:31.808Z,10.30
2018-06-22T02:17:03.402Z,10.30
2018-06-22T02:19:31.861Z,10.30
2018-06-22T02:22:00.344Z,10.40
2018-06-22T02:24:28.787Z,10.40
2018-06-22T02:26:57.213Z,10.40
2018-06-22T02:29:25.637Z,10.40
2018-06-22T02:31:54.052Z,10.40
2018-06-22T02:34:22.473Z,10.40
2018-06-22T02:36:50.889Z,10.50
2018-06-22T02:39:19.299Z,10.40
2018-06-22T02:41:47.729Z,10.50
2018-06-22T02:44:16.202Z,10.50
2018-06-22T02:46:44.621Z,10.50
2018-06-22T02:49:13.084Z,10.60
2018-06-22T02:51:41.537Z,10.60
2018-06-22T02:54:10.012Z,10.70
2018-06-22T02:56:38.419Z,10.60
2018-06-22T02:59:06.798Z,10.60
2018-06-22T03:01:36.247Z,10.70
2018-06-22T03:04:04.644Z,10.70
2018-06-22T03:06:33.062Z,10.60
2018-06-22T03:09:01.575Z,10.70
2018-06-22T03:11:30.046Z,10.80
2018-06-22T03:13:58.518Z,10.70
2018-06-22T03:16:26.953Z,10.70
2018-06-22T03:18:55.401Z,10.60
2018-06-22T03:21:23.841Z,10.60
2018-06-22T03:23:52.932Z,10.70
2018-06-22T03:26:21.352Z,10.60
2018-06-22T03:28:49.794Z,10.70
2018-06-22T03:31:18.231Z,10.70
2018-06-22T03:33:46.748Z,10.70
2018-06-22T03:36:15.158Z,10.70
2018-06-22T03:41:11.721Z,10.60
2018-06-22T03:43:40.154Z,10.60
2018-06-22T03:46:08.614Z,10.60
2018-06-22T03:48:37.101Z,10.70
2018-06-22T03:51:05.561Z,10.70
2018-06-22T03:53:34.088Z,10.80
2018-06-22T03:56:02.534Z,10.80
2018-06-22T03:58:30.976Z,10.80
2018-06-22T04:00:59.404Z,10.80
2018-06-22T04:03:27.841Z,10.80
2018-06-22T04:05:56.202Z,10.90
2018-06-22T04:08:26.623Z,10.90
2018-06-22T04:10:59.609Z,10.90
2018-06-22T04:13:28.973Z,10.90
2018-06-22T04:15:57.487Z,10.80
2018-06-22T04:18:25.977Z,10.90
2018-06-22T04:20:54.407Z,11.10
2018-06-22T04:23:22.835Z,11.10
2018-06-22T04:25:51.240Z,11.10
2018-06-22T04:30:47.840Z,11.00
2018-06-22T04:33:16.215Z,11.00
2018-06-22T04:35:45.382Z,11.10
2018-06-22T04:38:13.822Z,11.00
2018-06-22T04:40:42.297Z,11.00
2018-06-22T04:43:10.744Z,11.00
2018-06-22T04:45:39.221Z,11.00
2018-06-22T04:48:07.636Z,11.10
2018-06-22T04:50:36.064Z,11.10
2018-06-22T04:53:04.582Z,11.20
2018-06-22T04:55:33.000Z,11.20
2018-06-22T04:58:01.508Z,11.20
2018-06-22T05:00:30.003Z,11.20
2018-06-22T05:02:58.547Z,11.10
2018-06-22T05:05:27.033Z,11.10
2018-06-22T05:07:55.411Z,11.10
2018-06-22T05:10:23.916Z,11.10
2018-06-22T05:12:52.314Z,11.20
2018-06-22T05:15:20.733Z,11.20
2018-06-22T05:17:49.154Z,11.20
2018-06-22T05:20:18.239Z,11.20
2018-06-22T05:22:46.804Z,11.30
2018-06-22T05:25:15.210Z,11.40
2018-06-22T05:30:11.811Z,11.50
2018-06-22T05:32:40.288Z,11.50
2018-06-22T05:35:08.822Z,11.50
2018-06-22T05:37:37.254Z,11.50
2018-06-22T05:40:06.530Z,11.70
2018-06-22T05:42:35.805Z,11.80
2018-06-22T05:45:04.297Z,11.90
2018-06-22T05:47:32.802Z,11.90
2018-06-22T05:50:01.303Z,11.90
2018-06-22T05:52:29.754Z,11.90
2018-06-22T05:54:58.256Z,11.90
2018-06-22T05:57:26.910Z,11.90
2018-06-22T05:59:55.340Z,11.90
2018-06-22T06:02:23.816Z,11.90
2018-06-22T06:04:52.744Z,11.90
2018-06-22T06:07:21.449Z,11.90
2018-06-22T06:09:49.890Z,11.90
2018-06-22T06:12:18.907Z,11.80
2018-06-22T06:14:47.419Z,11.80
2018-06-22T06:17:15.853Z,11.80
2018-06-22T06:19:44.280Z,11.80
2018-06-22T06:22:13.093Z,11.80
2018-06-22T06:24:41.558Z,11.80
2018-06-22T06:27:10.079Z,12.00
2018-06-22T06:29:38.508Z,12.10
2018-06-22T06:32:06.955Z,12.10
2018-06-22T06:34:35.349Z,12.20
2018-06-22T06:39:31.901Z,12.10
2018-06-22T06:42:00.459Z,12.20
2018-06-22T06:44:28.836Z,12.30
2018-06-22T06:46:57.228Z,12.50
2018-06-22T06:49:25.593Z,12.50
2018-06-22T06:51:54.066Z,12.50
2018-06-22T06:54:22.409Z,12.50
2018-06-22T06:56:50.861Z,12.60
2018-06-22T06:59:19.226Z,12.60
2018-06-22T07:01:47.637Z,12.60
2018-06-22T07:04:16.094Z,12.70
2018-06-22T07:06:45.161Z,12.90
2018-06-22T07:09:13.591Z,12.80
2018-06-22T07:11:41.953Z,12.80
2018-06-22T07:14:10.337Z,12.90
2018-06-22T07:16:38.715Z,13.00
2018-06-22T07:19:07.110Z,13.10
2018-06-22T07:24:03.899Z,12.90
2018-06-22T07:26:32.646Z,13.00
2018-06-22T07:29:01.026Z,13.00
2018-06-22T07:31:29.421Z,13.10
2018-06-22T07:33:57.867Z,13.00
2018-06-22T07:36:26.275Z,13.10
2018-06-22T07:38:55.667Z,13.00
2018-06-22T07:41:24.309Z,13.00
2018-06-22T07:43:52.743Z,12.80
2018-06-22T07:48:55.871Z,12.70
2018-06-22T07:53:52.382Z,12.60
2018-06-22T07:56:20.861Z,12.70
2018-06-22T07:58:49.304Z,12.70
2018-06-22T08:01:17.801Z,12.70
2018-06-22T08:03:46.227Z,12.80
2018-06-22T08:06:14.595Z,13.00
2018-06-22T08:08:43.157Z,13.00
2018-06-22T08:11:11.553Z,13.10
2018-06-22T08:13:39.970Z,13.20
2018-06-22T08:16:08.360Z,13.20
2018-06-22T08:18:36.847Z,13.00
2018-06-22T08:21:05.235Z,13.00
2018-06-22T08:23:34.138Z,13.00
2018-06-22T08:26:02.487Z,13.00
2018-06-22T08:28:30.888Z,13.00
2018-06-22T08:30:59.331Z,13.00
2018-06-22T08:33:27.933Z,13.00
2018-06-22T08:35:56.389Z,13.10
2018-06-22T08:38:24.831Z,13.20
2018-06-22T08:40:53.223Z,13.20
2018-06-22T08:43:21.792Z,13.40
2018-06-22T08:45:50.289Z,13.50
2018-06-22T08:48:18.729Z,13.70
2018-06-22T08:50:47.178Z,13.90
2018-06-22T08:53:15.618Z,14.10
2018-06-22T08:55:44.107Z,14.20
2018-06-22T08:58:12.509Z,14.60
2018-06-22T09:00:40.970Z,15.00
2018-06-22T09:03:09.419Z,15.00
2018-06-22T09:05:37.850Z,14.70
2018-06-22T09:08:06.495Z,14.30
2018-06-22T09:10:35.042Z,13.50
2018-06-22T09:13:03.467Z,12.90
2018-06-22T09:15:32.007Z,12.60
2018-06-22T09:18:00.412Z,12.20
2018-06-22T09:20:28.844Z,11.90
2018-06-22T09:22:57.286Z,11.70
2018-06-22T09:25:26.028Z,11.70
2018-06-22T09:27:54.523Z,11.70
2018-06-22T09:32:51.639Z,11.90
2018-06-22T09:35:20.038Z,12.20
2018-06-22T09:37:48.486Z,12.60
2018-06-22T09:40:17.011Z,12.90
2018-06-22T09:42:45.496Z,13.10
2018-06-22T09:45:13.917Z,13.30
2018-06-22T09:47:42.382Z,13.60
2018-06-22T09:50:10.904Z,14.10
2018-06-22T09:52:39.384Z,14.30
2018-06-22T09:55:07.841Z,14.40
2018-06-22T09:57:36.272Z,14.30
2018-06-22T10:00:04.738Z,14.40
2018-06-22T10:02:33.162Z,14.50
2018-06-22T10:07:29.722Z,14.70
2018-06-22T10:09:58.140Z,14.70
2018-06-22T10:12:27.202Z,14.60
2018-06-22T10:14:55.671Z,14.80
2018-06-22T10:17:24.144Z,15.00
2018-06-22T10:19:52.994Z,15.00
2018-06-22T10:22:21.407Z,15.00
2018-06-22T10:24:49.803Z,15.10
2018-06-22T10:27:18.280Z,15.10
2018-06-22T10:29:46.658Z,14.90
2018-06-22T10:32:15.486Z,15.00
2018-06-22T10:34:43.930Z,15.10
2018-06-22T10:37:12.384Z,15.30
2018-06-22T10:39:40.854Z,15.50
2018-06-22T10:42:09.400Z,15.70
2018-06-22T10:44:37.850Z,16.00
2018-06-22T10:47:06.295Z,16.40
2018-06-22T10:49:34.669Z,16.70
2018-06-22T10:52:03.137Z,16.80
2018-06-22T10:54:31.767Z,16.60
2018-06-22T10:57:00.571Z,16.30
2018-06-22T11:01:57.163Z,15.50
2018-06-22T11:04:25.546Z,15.20
2018-06-22T11:06:53.915Z,15.00
2018-06-22T11:09:22.341Z,15.00
2018-06-22T11:11:50.711Z,15.40
2018-06-22T11:14:19.085Z,16.00
2018-06-22T11:16:47.544Z,16.50
2018-06-22T11:19:17.134Z,16.70
2018-06-22T11:21:45.583Z,16.60
2018-06-22T11:24:14.029Z,17.10
2018-06-22T11:26:42.541Z,17.50
2018-06-22T11:29:10.957Z,18.00
2018-06-22T11:31:39.365Z,18.20
2018-06-22T11:34:07.877Z,18.50
2018-06-22T11:36:42.185Z,18.70
2018-06-22T11:39:11.893Z,18.80
2018-06-22T11:41:41.370Z,19.00
2018-06-22T11:44:10.590Z,18.90
2018-06-22T11:46:39.164Z,18.70
2018-06-22T11:49:07.576Z,18.30
2018-06-22T11:51:36.228Z,18.50
2018-06-22T11:54:05.619Z,18.50
2018-06-22T11:56:34.038Z,18.50
2018-06-22T11:59:02.542Z,18.70
2018-06-22T12:03:59.968Z,18.90
2018-06-22T12:06:28.395Z,19.20
2018-06-22T12:08:56.799Z,19.30
2018-06-22T12:11:25.218Z,19.70
2018-06-22T12:13:53.679Z,20.20
2018-06-22T12:16:22.056Z,20.70
2018-06-22T12:18:50.502Z,20.80
2018-06-22T12:21:18.906Z,21.10
2018-06-22T12:23:47.344Z,20.50
2018-06-22T12:26:16.612Z,20.30
2018-06-22T12:28:45.138Z,20.30
2018-06-22T12:31:13.560Z,20.10
2018-06-22T12:33:42.233Z,20.10
2018-06-22T12:36:14.459Z,20.40
2018-06-22T12:38:42.908Z,20.60
2018-06-22T12:41:11.375Z,20.60
2018-06-22T12:43:39.777Z,20.80
2018-06-22T12:46:08.340Z,21.30
2018-06-22T12:48:36.759Z,21.60
2018-06-22T12:51:05.187Z,21.50
2018-06-22T12:53:33.559Z,21.40
2018-06-22T12:58:30.140Z,21.60
2018-06-22T13:00:58.510Z,21.00
2018-06-22T13:03:26.911Z,20.80
2018-06-22T13:05:55.352Z,20.80
2018-06-22T13:08:23.759Z,20.60
2018-06-22T13:10:52.162Z,20.40
2018-06-22T13:13:20.631Z,20.10
2018-06-22T13:15:49.059Z,20.00
2018-06-22T13:18:17.412Z,19.80
2018-06-22T13:20:45.856Z,19.90
2018-06-22T13:23:14.269Z,20.10
2018-06-22T13:25:42.775Z,20.30
2018-06-22T13:28:11.179Z,20.20
2018-06-22T13:30:39.592Z,20.20
2018-06-22T13:33:09.029Z,20.70
2018-06-22T13:35:37.490Z,20.90
2018-06-22T13:38:05.868Z,20.60
2018-06-22T13:40:34.409Z,20.40
2018-06-22T13:43:02.812Z,20.40
2018-06-22T13:45:31.267Z,20.10
2018-06-22T13:47:59.657Z,20.10
2018-06-22T13:50:28.169Z,20.20
2018-06-22T13:52:56.567Z,20.30
2018-06-22T13:55:24.960Z,20.20
2018-06-22T13:57:53.429Z,20.00
2018-06-22T14:00:22.428Z,19.90
2018-06-22T14:02:50.805Z,19.40
2018-06-22T14:05:24.502Z,19.00
2018-06-22T14:07:52.927Z,19.00
2018-06-22T14:10:21.397Z,18.90
2018-06-22T14:12:50.047Z,18.90
2018-06-22T14:15:18.696Z,18.90
2018-06-22T14:17:47.094Z,19.00
2018-06-22T14:20:15.559Z,19.20
2018-06-22T14:22:44.073Z,19.50
2018-06-22T14:25:12.489Z,19.80
2018-06-22T14:27:40.880Z,19.70
2018-06-22T14:30:09.327Z,19.80
2018-06-22T14:32:37.788Z,19.70
2018-06-22T14:35:06.232Z,19.70
2018-06-22T14:37:34.600Z,19.50
2018-06-22T14:42:31.178Z,19.40
2018-06-22T14:45:00.329Z,19.70
2018-06-22T14:47:28.811Z,20.00
2018-06-22T14:49:57.222Z,20.00
2018-06-22T14:52:25.664Z,20.00
2018-06-22T14:54:59.294Z,20.40
2018-06-22T14:58:36.820Z,20.70
2018-06-22T15:01:10.544Z,20.90
2018-06-22T15:03:44.382Z,21.50
2018-06-22T15:06:18.070Z,21.30
2018-06-22T15:08:46.480Z,21.50
2018-06-22T15:11:14.908Z,21.50
2018-06-22T15:13:43.553Z,21.60
2018-06-22T15:16:11.899Z,21.30
2018-06-22T15:18:40.428Z,21.10
2018-06-22T15:21:15.335Z,21.10
2018-06-22T15:23:43.748Z,20.80
2018-06-22T15:26:12.134Z,20.80
2018-06-22T15:28:40.739Z,20.50
2018-06-22T15:31:09.154Z,20.40
2018-06-22T15:33:43.019Z,20.30
2018-06-22T15:36:16.859Z,20.40
2018-06-22T15:38:50.703Z,20.30
2018-06-22T15:46:03.036Z,20.80
2018-06-22T15:49:37.728Z,20.60
2018-06-22T15:52:11.838Z,20.30
2018-06-22T15:54:45.666Z,20.50
2018-06-22T15:57:15.104Z,20.30
2018-06-22T15:59:43.643Z,20.30
2018-06-22T16:02:17.325Z,20.40
2018-06-22T16:04:45.744Z,20.10
2018-06-22T16:07:15.082Z,20.10
2018-06-22T16:09:48.782Z,19.90
2018-06-22T16:14:56.160Z,19.90
2018-06-22T16:17:29.908Z,20.00
2018-06-22T16:20:03.569Z,20.00
2018-06-22T16:22:37.305Z,19.70
2018-06-22T16:25:10.998Z,19.50
2018-06-22T16:30:11.313Z,19.40
2018-06-22T16:32:39.673Z,19.50
2018-06-22T16:35:08.157Z,19.50
2018-06-22T16:37:36.555Z,19.50
2018-06-22T16:40:05.317Z,19.20
2018-06-22T16:42:41.107Z,19.10
2018-06-22T16:45:09.525Z,19.20
2018-06-22T16:47:37.963Z,19.20
2018-06-22T16:50:07.830Z,19.20
2018-06-22T16:52:36.635Z,19.20
2018-06-22T16:55:05.166Z,19.30
2018-06-22T16:57:33.817Z,19.30
2018-06-22T17:00:02.195Z,19.50
2018-06-22T17:02:30.871Z,19.50
2018-06-22T17:04:59.332Z,19.40
2018-06-22T17:07:32.996Z,19.30
2018-06-22T17:10:06.779Z,19.30
2018-06-22T17:12:40.578Z,19.20
2018-06-22T17:15:14.292Z,19.10
2018-06-22T17:17:48.098Z,19.00
2018-06-22T17:20:16.602Z,19.00
2018-06-22T17:22:45.088Z,18.90
2018-06-22T17:25:14.012Z,19.00
2018-06-22T17:27:42.747Z,19.00
2018-06-22T17:30:11.181Z,19.00
2018-06-22T17:32:39.606Z,19.10
2018-06-22T17:35:08.056Z,19.00
2018-06-22T17:37:36.960Z,18.90
2018-06-22T17:40:05.452Z,18.90
2018-06-22T17:42:33.896Z,18.90
2018-06-22T17:45:02.399Z,18.90
2018-06-22T17:47:30.806Z,18.90
2018-06-22T17:50:06.336Z,18.80
2018-06-22T17:52:34.707Z,18.70
2018-06-22T17:55:03.159Z,18.70
2018-06-22T17:57:31.591Z,18.50
2018-06-22T18:00:05.393Z,18.40
2018-06-22T18:02:39.186Z,18.20
2018-06-22T18:05:13.049Z,18.10
2018-06-22T18:07:43.559Z,17.90
2018-06-22T18:10:17.300Z,17.90
2018-06-22T18:13:01.649Z,17.90
2018-06-22T18:15:30.037Z,17.80
2018-06-22T18:17:58.478Z,17.80
2018-06-22T18:20:26.988Z,17.80
2018-06-22T18:22:55.451Z,17.70
2018-06-22T18:25:23.892Z,17.60
2018-06-22T18:27:52.367Z,17.60
2018-06-22T18:30:21.543Z,17.60
2018-06-22T18:32:49.972Z,17.60
2018-06-22T18:35:18.424Z,17.60
2018-06-22T18:37:46.877Z,17.50
2018-06-22T18:40:15.390Z,17.50
2018-06-22T18:42:43.829Z,17.50
2018-06-22T18:45:12.612Z,17.40
2018-06-22T18:50:09.850Z,17.40
2018-06-22T18:52:43.631Z,17.30
2018-06-22T18:55:17.347Z,17.20
2018-06-22T18:57:51.175Z,17.20
2018-06-22T19:00:24.913Z,17.10
2018-06-22T19:02:58.693Z,17.10
2018-06-22T19:05:27.190Z,17.00
2018-06-22T19:07:55.713Z,16.90
2018-06-22T19:10:24.193Z,16.90
2018-06-22T19:12:52.578Z,16.80
2018-06-22T19:15:21.280Z,16.70
2018-06-22T19:17:49.687Z,16.70
2018-06-22T19:20:18.232Z,16.60
2018-06-22T19:22:46.909Z,16.60
2018-06-22T19:25:15.433Z,16.50
2018-06-22T19:27:43.956Z,16.50
2018-06-22T19:30:12.368Z,16.40
2018-06-22T19:32:40.819Z,16.40
2018-06-22T19:35:11.160Z,16.40
2018-06-22T19:37:39.584Z,16.40
2018-06-22T19:40:08.225Z,16.30
2018-06-22T19:42:37.110Z,16.20
2018-06-22T19:45:11.109Z,16.20
2018-06-22T19:47:44.826Z,16.10
2018-06-22T19:50:18.513Z,16.00
2018-06-22T19:52:52.306Z,16.00
2018-06-22T19:55:20.845Z,16.00
2018-06-22T19:57:49.699Z,15.90
2018-06-22T20:00:18.205Z,15.90
2018-06-22T20:02:46.638Z,15.80
2018-06-22T20:05:15.026Z,15.80
2018-06-22T20:07:43.449Z,15.70
2018-06-22T20:10:11.902Z,15.70
2018-06-22T20:12:40.285Z,15.70
2018-06-22T20:15:08.654Z,15.60
2018-06-22T20:17:37.186Z,15.60
2018-06-22T20:20:07.245Z,15.50
2018-06-22T20:22:35.707Z,15.40
2018-06-22T20:25:09.364Z,15.40
2018-06-22T20:27:37.781Z,15.40
2018-06-22T20:30:06.207Z,15.30
2018-06-22T20:32:34.717Z,15.30
2018-06-22T20:35:08.487Z,15.20
2018-06-22T20:37:43.294Z,15.20
2018-06-22T20:40:17.057Z,15.10
2018-06-22T20:42:52.582Z,15.10
2018-06-22T20:45:26.403Z,15.10
2018-06-22T20:48:00.158Z,15.10
2018-06-22T20:50:32.172Z,15.00
2018-06-22T20:53:00.993Z,15.00
2018-06-22T20:55:29.400Z,14.90
2018-06-22T20:57:57.832Z,15.00
2018-06-22T21:00:26.821Z,14.90
2018-06-22T21:02:55.524Z,14.90
2018-06-22T21:05:23.984Z,14.90
2018-06-22T21:07:52.645Z,14.90
2018-06-22T21:10:21.067Z,14.90
2018-06-22T21:12:49.581Z,14.90
2018-06-22T21:15:18.014Z,14.90
2018-06-22T21:17:46.396Z,14.90
2018-06-22T21:20:14.912Z,14.90
2018-06-22T21:22:43.397Z,14.90
2018-06-22T21:25:11.789Z,14.90
2018-06-22T21:27:45.521Z,14.90
2018-06-22T21:30:19.207Z,14.90
2018-06-22T21:32:52.925Z,14.90
2018-06-22T21:35:26.721Z,14.90
2018-06-22T21:38:00.363Z,14.80
2018-06-22T21:40:29.379Z,14.80
2018-06-22T21:42:57.754Z,14.80
2018-06-22T21:45:26.240Z,14.80
2018-06-22T21:47:54.620Z,14.80
2018-06-22T21:50:23.087Z,14.80
2018-06-22T21:52:51.560Z,14.80
2018-06-22T21:55:20.061Z,14.70
2018-06-22T21:57:48.437Z,14.70
2018-06-22T22:00:23.811Z,14.70
2018-06-22T22:02:52.385Z,14.70
2018-06-22T22:05:20.812Z,14.70
2018-06-22T22:07:49.172Z,14.70
2018-06-22T22:10:21.821Z,14.60
2018-06-22T22:12:50.332Z,14.50
2018-06-22T22:15:18.738Z,14.50
2018-06-22T22:17:47.133Z,14.40
2018-06-22T22:20:16.668Z,14.40
2018-06-22T22:22:45.117Z,14.30
2018-06-22T22:25:13.520Z,14.30
2018-06-22T22:27:41.906Z,14.30
2018-06-22T22:30:10.275Z,14.30
2018-06-22T22:32:38.625Z,14.20
2018-06-22T22:35:07.099Z,14.10
2018-06-22T22:37:35.496Z,14.20
2018-06-22T22:40:03.911Z,14.20
2018-06-22T22:42:32.306Z,14.10
2018-06-22T22:45:00.692Z,13.90
2018-06-22T22:47:29.053Z,13.90
2018-06-22T22:49:57.462Z,13.90
2018-06-22T22:54:54.071Z,13.80
2018-06-22T22:57:22.795Z,13.70
2018-06-22T22:59:51.734Z,13.70
2018-06-22T23:02:20.133Z,13.70
2018-06-22T23:04:48.520Z,13.60
2018-06-22T23:07:17.597Z,13.60
2018-06-22T23:09:46.128Z,13.50
2018-06-22T23:12:14.526Z,13.30
2018-06-22T23:14:43.179Z,13.30
2018-06-22T23:17:11.564Z,13.30
2018-06-22T23:19:39.967Z,13.20
2018-06-22T23:22:08.358Z,13.20
2018-06-22T23:24:36.746Z,13.10
2018-06-22T23:27:05.135Z,13.10
2018-06-22T23:29:33.548Z,13.00
2018-06-22T23:32:01.917Z,13.00
2018-06-22T23:34:30.332Z,13.10
2018-06-22T23:36:58.729Z,13.10
2018-06-22T23:39:27.153Z,13.10
2018-06-22T23:41:55.666Z,13.10
2018-06-22T23:44:24.124Z,13.10
2018-06-22T23:46:52.921Z,13.10
2018-06-22T23:49:21.301Z,13.00
2018-06-22T23:51:49.658Z,12.90
2018-06-22T23:54:18.091Z,12.80
2018-06-22T23:56:46.467Z,12.90
2018-06-22T23:59:14.843Z,12.80
